createdAt,value
2018-07-23T00:01:56.517Z,55.08
2018-07-23T00:04:24.770Z,55.16
2018-07-23T00:06:52.989Z,54.30
2018-07-23T00:09:21.205Z,55.30
2018-07-23T00:11:49.421Z,54.44
2018-07-23T00:14:17.633Z,54.39
2018-07-23T00:16:45.900Z,55.00
2018-07-23T00:19:14.158Z,55.42
2018-07-23T00:21:42.377Z,55.08
2018-07-23T00:24:10.692Z,55.64
2018-07-23T00:26:38.921Z,55.83
2018-07-23T00:29:07.584Z,55.76
2018-07-23T00:31:35.828Z,54.72
2018-07-23T00:34:04.037Z,55.73
2018-07-23T00:36:32.255Z,55.63
2018-07-23T00:39:00.472Z,56.31
2018-07-23T00:41:29.418Z,55.80
2018-07-23T00:43:57.656Z,55.61
2018-07-23T00:46:25.928Z,56.45
2018-07-23T00:48:54.160Z,55.74
2018-07-23T00:51:22.374Z,56.64
2018-07-23T00:53:50.596Z,55.63
2018-07-23T00:56:18.816Z,55.53
2018-07-23T00:58:47.038Z,55.78
2018-07-23T01:01:15.370Z,56.99
2018-07-23T01:03:43.576Z,56.93
2018-07-23T01:06:11.800Z,56.90
2018-07-23T01:08:40.053Z,56.11
2018-07-23T01:11:08.274Z,56.16
2018-07-23T01:13:36.496Z,57.43
2018-07-23T01:16:04.746Z,56.77
2018-07-23T01:18:32.961Z,57.52
2018-07-23T01:21:01.176Z,57.36
2018-07-23T01:23:29.413Z,57.96
2018-07-23T01:25:57.644Z,58.54
2018-07-23T01:28:25.860Z,57.43
2018-07-23T01:30:54.072Z,57.66
2018-07-23T01:33:22.305Z,57.98
2018-07-23T01:35:50.541Z,57.72
2018-07-23T01:38:18.996Z,57.84
2018-07-23T01:40:47.205Z,58.19
2018-07-23T01:43:15.424Z,58.06
2018-07-23T01:45:43.637Z,58.90
2018-07-23T01:48:11.925Z,58.88
2018-07-23T01:50:40.182Z,58.47
2018-07-23T01:53:08.400Z,58.90
2018-07-23T01:55:36.608Z,59.08
2018-07-23T01:58:04.858Z,59.26
2018-07-23T02:00:33.109Z,58.32
2018-07-23T02:03:01.359Z,59.39
2018-07-23T02:05:29.557Z,58.24
2018-07-23T02:07:57.786Z,59.31
2018-07-23T02:10:26.025Z,59.16
2018-07-23T02:12:54.257Z,58.50
2018-07-23T02:15:22.496Z,59.57
2018-07-23T02:17:50.717Z,58.56
2018-07-23T02:20:18.961Z,58.92
2018-07-23T02:22:47.165Z,59.71
2018-07-23T02:25:15.392Z,58.96
2018-07-23T02:27:43.605Z,59.48
2018-07-23T02:30:11.833Z,59.71
2018-07-23T02:32:40.116Z,59.04
2018-07-23T02:35:08.324Z,59.66
2018-07-23T02:37:36.584Z,58.82
2018-07-23T02:40:04.841Z,58.81
2018-07-23T02:42:33.061Z,60.09
2018-07-23T02:45:01.305Z,60.36
2018-07-23T02:47:29.561Z,59.73
2018-07-23T02:49:57.773Z,60.37
2018-07-23T02:52:25.993Z,59.39
2018-07-23T02:54:54.217Z,60.75
2018-07-23T02:57:22.436Z,59.81
2018-07-23T02:59:50.797Z,59.91
2018-07-23T03:02:19.037Z,60.83
2018-07-23T03:04:47.245Z,59.99
2018-07-23T03:07:15.459Z,60.68
2018-07-23T03:09:43.862Z,60.21
2018-07-23T03:12:12.079Z,59.84
2018-07-23T03:14:40.317Z,60.82
2018-07-23T03:17:08.544Z,60.82
2018-07-23T03:19:36.837Z,59.89
2018-07-23T03:22:05.073Z,60.23
2018-07-23T03:24:33.289Z,60.20
2018-07-23T03:27:01.505Z,59.98
2018-07-23T03:29:29.760Z,60.96
2018-07-23T03:31:58.048Z,61.05
2018-07-23T03:34:26.360Z,61.00
2018-07-23T03:36:54.603Z,61.32
2018-07-23T03:39:22.820Z,60.52
2018-07-23T03:41:51.069Z,60.57
2018-07-23T03:44:19.308Z,61.06
2018-07-23T03:46:47.529Z,61.83
2018-07-23T03:49:15.868Z,60.98
2018-07-23T03:51:44.105Z,60.88
2018-07-23T03:54:12.337Z,60.98
2018-07-23T03:56:40.572Z,61.19
2018-07-23T03:59:08.817Z,62.08
2018-07-23T04:01:37.044Z,62.33
2018-07-23T04:04:05.269Z,61.21
2018-07-23T04:06:33.523Z,62.18
2018-07-23T04:09:01.725Z,61.55
2018-07-23T04:11:30.061Z,61.47
2018-07-23T04:13:58.306Z,61.94
2018-07-23T04:16:26.521Z,61.08
2018-07-23T04:18:54.761Z,61.53
2018-07-23T04:21:22.977Z,61.56
2018-07-23T04:23:51.189Z,61.68
2018-07-23T04:26:19.421Z,62.19
2018-07-23T04:28:47.643Z,61.70
2018-07-23T04:31:15.864Z,62.80
2018-07-23T04:33:44.101Z,62.83
2018-07-23T04:36:12.317Z,62.89
2018-07-23T04:38:40.538Z,62.39
2018-07-23T04:41:08.749Z,63.11
2018-07-23T04:43:37.091Z,62.77
2018-07-23T04:46:05.624Z,63.35
2018-07-23T04:48:34.424Z,63.56
2018-07-23T04:51:02.666Z,62.53
2018-07-23T04:53:31.300Z,62.33
2018-07-23T04:55:59.912Z,62.92
2018-07-23T04:58:28.124Z,63.54
2018-07-23T05:00:56.454Z,62.67
2018-07-23T05:03:24.789Z,62.78
2018-07-23T05:05:53.020Z,63.46
2018-07-23T05:08:21.240Z,64.24
2018-07-23T05:10:49.508Z,64.27
2018-07-23T05:13:17.740Z,64.27
2018-07-23T05:15:45.953Z,64.12
2018-07-23T05:18:14.160Z,64.12
2018-07-23T05:20:42.381Z,64.59
2018-07-23T05:23:10.600Z,64.12
2018-07-23T05:25:38.837Z,63.54
2018-07-23T05:28:07.956Z,64.27
2018-07-23T05:30:36.262Z,63.38
2018-07-23T05:33:04.493Z,63.82
2018-07-23T05:35:32.713Z,64.21
2018-07-23T05:38:00.948Z,64.27
2018-07-23T05:40:29.213Z,64.69
2018-07-23T05:42:57.445Z,64.05
2018-07-23T05:45:25.681Z,64.56
2018-07-23T05:47:53.908Z,64.54
2018-07-23T05:50:22.124Z,63.15
2018-07-23T05:52:50.370Z,63.73
2018-07-23T05:55:18.692Z,62.82
2018-07-23T05:57:46.984Z,63.46
2018-07-23T06:00:15.196Z,63.23
2018-07-23T06:02:43.421Z,62.49
2018-07-23T06:05:11.665Z,61.72
2018-07-23T06:07:39.964Z,61.15
2018-07-23T06:10:08.215Z,61.40
2018-07-23T06:12:36.452Z,61.54
2018-07-23T06:15:05.481Z,62.52
2018-07-23T06:17:33.737Z,62.55
2018-07-23T06:20:01.950Z,61.60
2018-07-23T06:22:30.173Z,66.83
2018-07-23T06:24:58.433Z,72.72
2018-07-23T06:27:26.674Z,75.13
2018-07-23T06:29:54.992Z,76.21
2018-07-23T06:32:23.153Z,75.31
2018-07-23T06:34:51.382Z,75.99
2018-07-23T06:37:19.608Z,77.70
2018-07-23T06:39:48.041Z,75.54
2018-07-23T06:42:16.292Z,76.89
2018-07-23T06:44:44.545Z,76.95
2018-07-23T06:47:12.905Z,76.18
2018-07-23T06:49:41.132Z,76.61
2018-07-23T06:52:09.367Z,75.69
2018-07-23T06:54:37.613Z,75.33
2018-07-23T06:57:06.134Z,75.36
2018-07-23T06:59:34.749Z,76.66
2018-07-23T07:02:03.009Z,76.95
2018-07-23T07:04:31.225Z,76.57
2018-07-23T07:06:59.469Z,76.45
2018-07-23T07:09:27.697Z,74.15
2018-07-23T07:11:55.965Z,73.32
2018-07-23T07:14:24.192Z,72.72
2018-07-23T07:16:52.425Z,72.99
2018-07-23T07:19:20.677Z,73.58
2018-07-23T07:21:48.916Z,74.17
2018-07-23T07:24:17.136Z,73.74
2018-07-23T07:26:45.776Z,72.11
2018-07-23T07:29:14.369Z,71.17
2018-07-23T07:31:42.604Z,69.23
2018-07-23T07:34:10.849Z,68.14
2018-07-23T07:36:39.071Z,68.08
2018-07-23T07:39:10.433Z,67.20
2018-07-23T07:41:39.025Z,67.06
2018-07-23T07:44:07.677Z,66.90
2018-07-23T07:46:36.040Z,69.16
2018-07-23T07:49:04.432Z,67.78
2018-07-23T07:51:32.653Z,68.73
2018-07-23T07:54:00.864Z,66.29
2018-07-23T07:56:29.136Z,66.26
2018-07-23T07:58:57.357Z,65.50
2018-07-23T08:01:25.593Z,64.75
2018-07-23T08:03:53.809Z,64.10
2018-07-23T08:06:22.017Z,65.71
2018-07-23T08:08:50.380Z,66.56
2018-07-23T08:11:18.610Z,65.77
2018-07-23T08:13:47.101Z,64.89
2018-07-23T08:16:15.505Z,63.19
2018-07-23T08:18:43.773Z,63.53
2018-07-23T08:21:11.989Z,62.85
2018-07-23T08:23:40.276Z,62.95
2018-07-23T08:26:08.509Z,61.83
2018-07-23T08:28:36.732Z,62.45
2018-07-23T08:31:04.989Z,62.57
2018-07-23T08:33:33.217Z,61.16
2018-07-23T08:36:01.509Z,60.75
2018-07-23T08:38:29.769Z,60.48
2018-07-23T08:40:57.993Z,61.83
2018-07-23T08:43:26.217Z,60.67
2018-07-23T08:45:54.433Z,60.99
2018-07-23T08:48:22.684Z,61.29
2018-07-23T08:50:50.908Z,60.48
2018-07-23T08:53:19.145Z,60.18
2018-07-23T08:55:47.388Z,61.50
2018-07-23T08:58:15.620Z,59.79
2018-07-23T09:00:43.861Z,59.73
2018-07-23T09:03:12.228Z,58.56
2018-07-23T09:05:40.522Z,59.09
2018-07-23T09:08:08.720Z,58.16
2018-07-23T09:10:36.940Z,57.37
2018-07-23T09:13:05.182Z,57.02
2018-07-23T09:15:33.460Z,57.38
2018-07-23T09:18:01.717Z,56.33
2018-07-23T09:20:29.949Z,56.74
2018-07-23T09:22:58.176Z,57.68
2018-07-23T09:25:30.560Z,56.90
2018-07-23T09:27:58.797Z,56.94
2018-07-23T09:30:32.297Z,56.21
2018-07-23T09:33:00.541Z,55.73
2018-07-23T09:35:28.780Z,55.91
2018-07-23T09:37:57.041Z,56.32
2018-07-23T09:40:25.267Z,56.24
2018-07-23T09:42:53.498Z,55.67
2018-07-23T09:45:21.720Z,55.57
2018-07-23T09:47:49.977Z,55.96
2018-07-23T09:50:18.220Z,55.29
2018-07-23T09:52:46.508Z,55.50
2018-07-23T09:55:14.713Z,54.68
2018-07-23T09:57:42.945Z,55.54
2018-07-23T10:00:11.152Z,55.00
2018-07-23T10:02:39.368Z,54.09
2018-07-23T10:05:07.596Z,54.79
2018-07-23T10:07:35.842Z,53.96
2018-07-23T10:10:04.139Z,53.01
2018-07-23T10:12:32.354Z,53.07
2018-07-23T10:15:00.590Z,52.86
2018-07-23T10:17:28.796Z,52.85
2018-07-23T10:19:56.992Z,52.27
2018-07-23T10:22:25.209Z,52.15
2018-07-23T10:24:53.412Z,52.41
2018-07-23T10:27:21.641Z,52.80
2018-07-23T10:29:49.848Z,51.24
2018-07-23T10:32:18.068Z,52.40
2018-07-23T10:34:46.275Z,51.74
2018-07-23T10:37:14.534Z,51.67
2018-07-23T10:39:42.757Z,51.15
2018-07-23T10:42:10.975Z,51.34
2018-07-23T10:44:39.209Z,51.22
2018-07-23T10:47:07.421Z,51.37
2018-07-23T10:49:35.664Z,51.52
2018-07-23T10:52:03.884Z,50.88
2018-07-23T10:54:32.097Z,50.38
2018-07-23T10:57:00.385Z,50.04
2018-07-23T10:59:28.593Z,49.54
2018-07-23T11:01:56.880Z,48.75
2018-07-23T11:04:25.097Z,48.38
2018-07-23T11:06:53.304Z,48.78
2018-07-23T11:09:21.578Z,49.55
2018-07-23T11:11:49.786Z,48.21
2018-07-23T11:14:18.017Z,48.39
2018-07-23T11:16:46.244Z,49.97
2018-07-23T11:19:14.496Z,48.47
2018-07-23T11:21:42.723Z,48.71
2018-07-23T11:24:10.929Z,47.75
2018-07-23T11:26:39.247Z,46.61
2018-07-23T11:29:07.417Z,46.17
2018-07-23T11:31:35.629Z,45.54
2018-07-23T11:34:03.826Z,45.83
2018-07-23T11:36:32.058Z,46.03
2018-07-23T11:39:00.413Z,46.97
2018-07-23T11:41:28.688Z,46.79
2018-07-23T11:43:56.865Z,47.43
2018-07-23T11:46:25.314Z,48.09
2018-07-23T11:48:53.324Z,46.72
2018-07-23T11:51:21.536Z,46.71
2018-07-23T11:53:49.761Z,46.48
2018-07-23T11:56:18.013Z,46.63
2018-07-23T11:58:46.280Z,47.31
2018-07-23T12:01:14.513Z,46.99
2018-07-23T12:03:42.728Z,47.23
2018-07-23T12:06:10.961Z,45.16
2018-07-23T12:08:39.176Z,44.45
2018-07-23T12:11:07.425Z,44.59
2018-07-23T12:13:35.734Z,43.16
2018-07-23T12:16:03.952Z,43.18
2018-07-23T12:18:32.184Z,43.64
2018-07-23T12:21:00.441Z,43.54
2018-07-23T12:23:28.731Z,43.88
2018-07-23T12:25:57.000Z,43.31
2018-07-23T12:28:25.232Z,42.94
2018-07-23T12:30:53.482Z,43.57
2018-07-23T12:33:21.717Z,43.82
2018-07-23T12:35:49.941Z,41.70
2018-07-23T12:38:18.309Z,41.15
2018-07-23T12:40:46.529Z,40.67
2018-07-23T12:43:14.751Z,40.03
2018-07-23T12:45:42.981Z,40.21
2018-07-23T12:48:11.241Z,40.34
2018-07-23T12:50:39.511Z,40.55
2018-07-23T12:53:07.761Z,39.99
2018-07-23T12:55:35.985Z,39.05
2018-07-23T12:58:04.204Z,39.41
2018-07-23T13:00:32.412Z,38.17
2018-07-23T13:03:00.721Z,38.03
2018-07-23T13:05:31.941Z,38.97
2018-07-23T13:08:01.520Z,38.18
2018-07-23T13:10:29.760Z,38.06
2018-07-23T13:12:58.001Z,37.89
2018-07-23T13:15:26.269Z,37.86
2018-07-23T13:17:54.565Z,38.35
2018-07-23T13:20:23.268Z,37.36
2018-07-23T13:22:51.508Z,37.42
2018-07-23T13:25:19.887Z,37.44
2018-07-23T13:27:48.100Z,37.37
2018-07-23T13:30:16.341Z,37.64
2018-07-23T13:32:45.821Z,37.92
2018-07-23T13:35:14.362Z,36.76
2018-07-23T13:37:43.220Z,37.54
2018-07-23T13:40:11.446Z,35.82
2018-07-23T13:42:39.663Z,36.43
2018-07-23T13:45:07.977Z,36.02
2018-07-23T13:47:36.242Z,35.34
2018-07-23T13:50:04.554Z,35.52
2018-07-23T13:52:32.769Z,35.63
2018-07-23T13:55:01.017Z,35.84
2018-07-23T13:57:29.253Z,36.78
2018-07-23T13:59:57.476Z,36.96
2018-07-23T14:02:25.717Z,37.51
2018-07-23T14:04:53.951Z,37.81
2018-07-23T14:07:22.205Z,36.66
2018-07-23T14:09:50.436Z,38.04
2018-07-23T14:12:18.856Z,38.34
2018-07-23T14:14:47.080Z,36.66
2018-07-23T14:17:15.353Z,38.31
2018-07-23T14:19:43.800Z,38.41
2018-07-23T14:22:12.053Z,38.41
2018-07-23T14:24:40.353Z,38.36
2018-07-23T14:27:08.560Z,38.67
2018-07-23T14:29:36.856Z,38.73
2018-07-23T14:32:05.097Z,38.33
2018-07-23T14:34:33.327Z,37.37
2018-07-23T14:37:01.606Z,37.19
2018-07-23T14:39:29.844Z,36.95
2018-07-23T14:41:58.078Z,36.26
2018-07-23T14:44:26.349Z,35.89
2018-07-23T14:46:54.621Z,36.23
2018-07-23T14:49:23.045Z,35.82
2018-07-23T14:51:51.262Z,36.16
2018-07-23T14:54:19.505Z,36.72
2018-07-23T14:56:47.780Z,36.94
2018-07-23T14:59:16.087Z,37.86
2018-07-23T15:01:44.342Z,37.24
2018-07-23T15:04:12.581Z,36.56
2018-07-23T15:06:40.809Z,37.68
2018-07-23T15:09:09.988Z,37.36
2018-07-23T15:11:38.268Z,37.58
2018-07-23T15:14:06.553Z,37.79
2018-07-23T15:16:34.944Z,37.69
2018-07-23T15:19:03.165Z,38.07
2018-07-23T15:21:31.392Z,38.75
2018-07-23T15:23:59.613Z,39.51
2018-07-23T15:26:27.886Z,39.89
2018-07-23T15:28:56.123Z,39.27
2018-07-23T15:31:24.340Z,38.41
2018-07-23T15:33:52.588Z,37.10
2018-07-23T15:36:20.853Z,36.41
2018-07-23T15:38:49.102Z,37.15
2018-07-23T15:41:17.317Z,37.60
2018-07-23T15:43:45.566Z,36.67
2018-07-23T15:46:13.822Z,37.17
2018-07-23T15:48:41.992Z,37.98
2018-07-23T15:51:10.285Z,37.78
2018-07-23T15:53:38.540Z,38.22
2018-07-23T15:56:07.036Z,37.99
2018-07-23T15:58:35.293Z,38.03
2018-07-23T16:01:03.568Z,38.61
2018-07-23T16:03:31.893Z,37.84
2018-07-23T16:06:00.128Z,38.51
2018-07-23T16:08:28.369Z,38.02
2018-07-23T16:10:56.632Z,37.29
2018-07-23T16:13:24.844Z,36.51
2018-07-23T16:15:53.092Z,35.48
2018-07-23T16:18:21.349Z,35.23
2018-07-23T16:20:49.560Z,34.41
2018-07-23T16:23:17.827Z,34.38
2018-07-23T16:25:46.042Z,34.77
2018-07-23T16:28:14.333Z,33.86
2018-07-23T16:30:42.729Z,33.52
2018-07-23T16:33:10.957Z,33.78
2018-07-23T16:35:39.184Z,35.27
2018-07-23T16:38:07.461Z,35.96
2018-07-23T16:40:35.707Z,36.69
2018-07-23T16:43:04.001Z,37.49
2018-07-23T16:45:32.341Z,36.77
2018-07-23T16:48:00.550Z,36.23
2018-07-23T16:50:28.805Z,35.80
2018-07-23T16:52:57.032Z,35.38
2018-07-23T16:55:25.249Z,34.80
2018-07-23T16:57:53.466Z,35.18
2018-07-23T17:00:21.681Z,36.12
2018-07-23T17:02:49.925Z,37.66
2018-07-23T17:05:18.148Z,38.36
2018-07-23T17:07:46.384Z,38.90
2018-07-23T17:10:14.593Z,39.24
2018-07-23T17:12:42.825Z,41.21
2018-07-23T17:15:11.105Z,40.50
2018-07-23T17:17:39.316Z,40.31
2018-07-23T17:20:07.677Z,39.86
2018-07-23T17:22:36.105Z,40.32
2018-07-23T17:25:04.393Z,40.95
2018-07-23T17:27:32.629Z,40.16
2018-07-23T17:30:00.860Z,39.89
2018-07-23T17:32:29.104Z,40.29
2018-07-23T17:34:57.344Z,39.44
2018-07-23T17:37:25.580Z,39.57
2018-07-23T17:39:53.793Z,39.59
2018-07-23T17:42:22.008Z,42.11
2018-07-23T17:44:50.321Z,42.05
2018-07-23T17:47:18.476Z,43.35
2018-07-23T17:49:46.710Z,42.63
2018-07-23T17:52:14.920Z,42.57
2018-07-23T17:54:43.160Z,42.33
2018-07-23T17:57:11.416Z,42.28
2018-07-23T17:59:39.704Z,44.02
2018-07-23T18:02:07.952Z,43.64
2018-07-23T18:04:36.245Z,43.53
2018-07-23T18:07:04.744Z,44.07
2018-07-23T18:09:32.960Z,43.71
2018-07-23T18:12:01.228Z,42.33
2018-07-23T18:14:29.458Z,42.84
2018-07-23T18:16:57.676Z,42.20
2018-07-23T18:19:25.980Z,43.02
2018-07-23T18:21:54.220Z,43.82
2018-07-23T18:24:22.460Z,44.23
2018-07-23T18:26:50.668Z,44.74
2018-07-23T18:29:18.953Z,43.89
2018-07-23T18:31:47.219Z,44.61
2018-07-23T18:34:15.462Z,45.59
2018-07-23T18:36:43.766Z,46.03
2018-07-23T18:39:12.993Z,46.17
2018-07-23T18:41:41.928Z,45.65
2018-07-23T18:44:10.389Z,47.01
2018-07-23T18:46:38.645Z,46.56
2018-07-23T18:49:20.697Z,47.79
2018-07-23T18:51:51.061Z,48.52
2018-07-23T18:54:20.949Z,47.86
2018-07-23T18:56:51.404Z,47.89
2018-07-23T18:59:19.604Z,48.15
2018-07-23T19:01:48.896Z,49.48
2018-07-23T19:04:17.165Z,49.38
2018-07-23T19:06:45.476Z,49.73
2018-07-23T19:09:14.925Z,49.39
2018-07-23T19:11:45.133Z,49.00
2018-07-23T19:14:14.133Z,49.01
2018-07-23T19:16:42.753Z,49.27
2018-07-23T19:19:11.089Z,49.49
2018-07-23T19:21:39.368Z,49.67
2018-07-23T19:24:07.637Z,49.75
2018-07-23T19:26:35.893Z,49.64
2018-07-23T19:29:04.115Z,49.86
2018-07-23T19:31:32.386Z,50.56
2018-07-23T19:34:01.929Z,51.28
2018-07-23T19:36:30.465Z,51.58
2018-07-23T19:38:59.069Z,51.33
2018-07-23T19:41:27.873Z,51.51
2018-07-23T19:43:56.085Z,51.81
2018-07-23T19:46:24.452Z,51.16
2018-07-23T19:48:52.780Z,51.92
2018-07-23T19:51:21.012Z,51.55
2018-07-23T19:53:49.273Z,51.95
2018-07-23T19:56:17.501Z,51.92
2018-07-23T19:58:45.765Z,51.57
2018-07-23T20:01:14.018Z,51.99
2018-07-23T20:03:42.233Z,52.16
2018-07-23T20:06:10.470Z,52.81
2018-07-23T20:08:38.772Z,53.01
2018-07-23T20:11:07.372Z,52.81
2018-07-23T20:13:35.577Z,52.93
2018-07-23T20:16:03.853Z,52.35
2018-07-23T20:18:32.085Z,52.21
2018-07-23T20:21:00.351Z,52.58
2018-07-23T20:23:28.614Z,52.92
2018-07-23T20:25:56.951Z,52.84
2018-07-23T20:28:25.189Z,52.66
2018-07-23T20:30:53.412Z,53.08
2018-07-23T20:33:21.628Z,53.15
2018-07-23T20:35:49.892Z,53.51
2018-07-23T20:38:18.134Z,53.00
2018-07-23T20:40:46.357Z,53.57
2018-07-23T20:43:14.573Z,54.04
2018-07-23T20:45:42.839Z,54.28
2018-07-23T20:48:11.124Z,54.58
2018-07-23T20:50:39.347Z,54.84
2018-07-23T20:53:07.625Z,54.66
2018-07-23T20:55:35.853Z,55.36
2018-07-23T20:58:04.109Z,55.44
2018-07-23T21:00:32.389Z,55.66
2018-07-23T21:03:00.649Z,54.97
2018-07-23T21:05:28.861Z,55.58
2018-07-23T21:07:57.376Z,55.41
2018-07-23T21:10:25.605Z,55.68
2018-07-23T21:12:53.899Z,55.84
2018-07-23T21:15:22.113Z,55.97
2018-07-23T21:17:50.424Z,55.81
2018-07-23T21:20:18.673Z,56.14
2018-07-23T21:22:46.884Z,55.96
2018-07-23T21:25:15.177Z,56.63
2018-07-23T21:27:43.394Z,56.90
2018-07-23T21:30:11.597Z,56.74
2018-07-23T21:32:39.865Z,57.41
2018-07-23T21:35:08.099Z,57.04
2018-07-23T21:37:36.349Z,56.47
2018-07-23T21:40:05.041Z,57.26
2018-07-23T21:42:33.273Z,56.29
2018-07-23T21:45:01.534Z,57.61
2018-07-23T21:47:29.789Z,57.81
2018-07-23T21:49:58.074Z,57.80
2018-07-23T21:52:26.381Z,57.09
2018-07-23T21:54:54.605Z,57.08
2018-07-23T21:57:22.813Z,58.39
2018-07-23T21:59:51.213Z,57.28
2018-07-23T22:02:19.453Z,58.51
2018-07-23T22:04:47.700Z,58.95
2018-07-23T22:07:15.936Z,57.93
2018-07-23T22:09:44.281Z,59.00
2018-07-23T22:12:12.496Z,58.57
2018-07-23T22:14:40.708Z,58.18
2018-07-23T22:17:08.985Z,59.12
2018-07-23T22:19:37.209Z,58.53
2018-07-23T22:22:05.473Z,58.37
2018-07-23T22:24:33.680Z,58.83
2018-07-23T22:27:02.037Z,57.98
2018-07-23T22:29:30.301Z,57.94
2018-07-23T22:31:58.524Z,58.33
2018-07-23T22:34:26.744Z,59.11
2018-07-23T22:36:55.092Z,58.82
2018-07-23T22:39:23.348Z,59.07
2018-07-23T22:41:51.557Z,58.03
2018-07-23T22:44:19.812Z,58.53
2018-07-23T22:46:48.013Z,59.12
2018-07-23T22:49:16.280Z,58.30
2018-07-23T22:51:44.492Z,58.48
2018-07-23T22:54:12.752Z,58.78
2018-07-23T22:56:41.014Z,58.66
2018-07-23T22:59:09.232Z,58.80
2018-07-23T23:01:37.461Z,58.71
2018-07-23T23:04:05.725Z,58.84
2018-07-23T23:06:33.941Z,59.09
2018-07-23T23:09:02.173Z,58.28
2018-07-23T23:11:30.377Z,58.72
2018-07-23T23:13:58.597Z,59.37
2018-07-23T23:16:26.818Z,58.84
2018-07-23T23:18:55.037Z,58.19
2018-07-23T23:21:23.261Z,58.48
2018-07-23T23:23:51.485Z,58.46
2018-07-23T23:26:19.797Z,59.48
2018-07-23T23:28:48.041Z,59.36
2018-07-23T23:31:16.268Z,60.09
2018-07-23T23:33:44.500Z,60.00
2018-07-23T23:36:12.726Z,60.27
2018-07-23T23:38:40.997Z,59.22
2018-07-23T23:41:09.237Z,60.17
2018-07-23T23:43:37.472Z,60.07
2018-07-23T23:46:05.694Z,59.86
2018-07-23T23:48:33.924Z,59.10
2018-07-23T23:51:02.173Z,59.56
2018-07-23T23:53:30.413Z,59.95
2018-07-23T23:55:58.665Z,60.59
2018-07-23T23:58:26.993Z,60.53
